Time,TemperatureF,DewpointF,PressureIn,WindDirection,WindDirectionDegrees,WindSpeedMPH,WindSpeedGustMPH,Humidity,HourlyPrecipIn,Conditions,Clouds,dailyrainin,SoftwareType,DateUTC
2013-02-06 00:12:00,-999.0,-99.9,-100.00,North,4,12.0,21.0,-999,-99.99,,,-99.99,,2013-02-06 05:12:00,
2013-02-06 00:42:00,-999.0,-99.9,-100.00,North,9,13.0,20.0,-999,-99.99,,,-99.99,,2013-02-06 05:42:00,
2013-02-06 01:42:00,-999.0,-99.9,-100.00,NNW,348,6.0,11.0,-999,-99.99,,,-99.99,,2013-02-06 06:42:00,
2013-02-06 02:11:00,-999.0,-99.9,-100.00,NE,37,2.0,5.0,-999,-99.99,,,-99.99,,2013-02-06 07:11:00,
2013-02-06 03:42:00,-999.0,-99.9,-100.00,South,186,2.0,3.0,-999,-99.99,,,-99.99,,2013-02-06 08:42:00,
2013-02-06 05:11:00,-999.0,-99.9,-100.00,ENE,67,1.0,3.0,-999,-99.99,,,-99.99,,2013-02-06 10:11:00,
2013-02-06 05:42:00,-999.0,-99.9,-100.00,SW,215,1.0,1.0,-999,-99.99,,,-99.99,,2013-02-06 10:42:00,
2013-02-06 06:42:00,-999.0,-99.9,-100.00,ESE,112,4.0,4.0,-999,-99.99,,,-99.99,,2013-02-06 11:42:00,
2013-02-06 07:12:00,-999.0,-99.9,-100.00,East,100,6.0,6.0,-999,-99.99,,,-99.99,,2013-02-06 12:12:00,
2013-02-06 08:12:00,-999.0,-99.9,-100.00,ESE,115,5.0,7.0,-999,-99.99,,,-99.99,,2013-02-06 13:12:00,
2013-02-06 08:42:00,-999.0,-99.9,-100.00,ESE,116,4.0,6.0,-999,-99.99,,,-99.99,,2013-02-06 13:42:00,
2013-02-06 09:52:00,-999.0,-99.9,-100.00,ESE,104,6.0,8.0,-999,-99.99,,,-99.99,,2013-02-06 14:52:00,
2013-02-06 10:02:00,-999.0,-99.9,-100.00,ESE,104,6.0,8.0,-999,-99.99,,,-99.99,,2013-02-06 15:02:00,
2013-02-06 10:32:00,-999.0,-99.9,-100.00,ESE,114,5.0,8.0,-999,-99.99,,,-99.99,,2013-02-06 15:32:00,
2013-02-06 11:11:00,-999.0,-99.9,-100.00,ESE,106,7.0,9.0,-999,-99.99,,,-99.99,,2013-02-06 16:11:00,
2013-02-06 11:22:00,-999.0,-99.9,-100.00,ESE,106,7.0,9.0,-999,-99.99,,,-99.99,,2013-02-06 16:22:00,
2013-02-06 11:42:00,-999.0,-99.9,-100.00,East,97,5.0,7.0,-999,-99.99,,,-99.99,,2013-02-06 16:42:00,
2013-02-06 12:02:00,-999.0,-99.9,-100.00,East,99,5.0,7.0,-999,-99.99,,,-99.99,,2013-02-06 17:02:00,
2013-02-06 12:42:00,-999.0,-99.9,-100.00,ESE,107,5.0,8.0,-999,-99.99,,,-99.99,,2013-02-06 17:42:00,
2013-02-06 13:12:00,-999.0,-99.9,-100.00,ESE,110,5.0,8.0,-999,-99.99,,,-99.99,,2013-02-06 18:12:00,
2013-02-06 14:42:00,-999.0,-99.9,-100.00,East,93,8.0,9.0,-999,-99.99,,,-99.99,,2013-02-06 19:42:00,
2013-02-06 16:11:00,-999.0,-99.9,-100.00,East,94,7.0,9.0,-999,-99.99,,,-99.99,,2013-02-06 21:11:00,
2013-02-06 16:42:00,-999.0,-99.9,-100.00,ESE,106,9.0,11.0,-999,-99.99,,,-99.99,,2013-02-06 21:42:00,
2013-02-06 17:42:00,-999.0,-99.9,-100.00,ESE,114,7.0,10.0,-999,-99.99,,,-99.99,,2013-02-06 22:42:00,
2013-02-06 18:11:00,-999.0,-99.9,-100.00,ESE,120,4.0,7.0,-999,-99.99,,,-99.99,,2013-02-06 23:11:00,
2013-02-06 19:11:00,-999.0,-99.9,-100.00,ESE,117,6.0,10.0,-999,-99.99,,,-99.99,,2013-02-07 00:11:00,
2013-02-06 19:42:00,-999.0,-99.9,-100.00,ESE,111,8.0,11.0,-999,-99.99,,,-99.99,,2013-02-07 00:42:00,
2013-02-06 20:42:00,-999.0,-99.9,-100.00,ESE,110,6.0,8.0,-999,-99.99,,,-99.99,,2013-02-07 01:42:00,
2013-02-06 21:12:00,-999.0,-99.9,-100.00,ESE,121,8.0,11.0,-999,-99.99,,,-99.99,,2013-02-07 02:12:00,
2013-02-06 22:02:00,-999.0,-99.9,-100.00,ESE,103,9.0,12.0,-999,-99.99,,,-99.99,,2013-02-07 03:02:00,
2013-02-06 22:42:00,-999.0,-99.9,-100.00,East,101,6.0,10.0,-999,-99.99,,,-99.99,,2013-02-07 03:42:00,